Time;durP1;ratioP1;P1;durP2;ratioP2;P2;SDS_P1;SDS_P2;PMS_P1;PMS_P2;Temp;Humidity;BMP_temperature;BMP_pressure;BME280_temperature;BME280_humidity;BME280_pressure;Samples;Min_cycle;Max_cycle;Signal;HPM_P1;HPM_P2
2022/10/18 00:01:30;;;;;;;11.90;10.87;;;;;;;6.21;84.59;94293.25;5071053;28;20209;-70
2022/10/18 00:03:55;;;;;;;12.13;11.07;;;;;;;6.07;84.23;94273.59;5069817;28;20237;-69
2022/10/18 00:06:21;;;;;;;11.43;10.60;;;;;;;6.07;84.20;94292.53;5071061;28;20227;-69
2022/10/18 00:08:47;;;;;;;12.07;11.13;;;;;;;6.14;83.89;94295.88;5070962;28;20232;-69
2022/10/18 00:11:12;;;;;;;11.70;11.00;;;;;;;5.91;83.68;94277.50;5071012;28;20196;-69
2022/10/18 00:13:38;;;;;;;11.53;10.73;;;;;;;6.05;84.98;94279.00;5070507;28;20237;-69
2022/10/18 00:16:11;;;;;;;12.50;11.60;;;;;;;6.08;85.18;94277.78;5071282;28;20181;-72
2022/10/18 00:18:37;;;;;;;12.23;11.13;;;;;;;6.08;85.00;94272.59;5069664;28;20209;-74
2022/10/18 00:21:23;;;;;;;10.90;10.17;;;;;;;6.09;84.32;94280.16;5070966;28;20200;-73
2022/10/18 00:23:50;;;;;;;13.17;12.27;;;;;;;6.14;84.62;94261.38;5069798;28;20240;-73
2022/10/18 00:26:19;;;;;;;11.90;10.93;;;;;;;6.10;84.39;94265.41;5071018;28;20190;-73
2022/10/18 00:28:46;;;;;;;12.30;11.20;;;;;;;6.00;84.60;94260.69;5070263;28;20467;-71
2022/10/18 00:31:14;;;;;;;12.57;11.67;;;;;;;5.82;84.38;94231.28;5069712;28;20193;-73
2022/10/18 00:33:40;;;;;;;12.53;11.63;;;;;;;5.93;84.79;94248.78;5069658;28;20221;-73
2022/10/18 00:36:05;;;;;;;13.03;11.93;;;;;;;5.94;84.32;94248.56;5071228;28;20227;-74
2022/10/18 00:38:31;;;;;;;12.30;11.10;;;;;;;5.90;84.61;94244.78;5070393;28;20229;-73
2022/10/18 00:40:56;;;;;;;11.20;10.40;;;;;;;5.90;85.36;94247.38;5070561;28;20208;-73
2022/10/18 00:43:21;;;;;;;12.10;11.13;;;;;;;5.96;84.66;94240.56;5069948;28;20232;-73
2022/10/18 00:45:47;;;;;;;12.20;11.13;;;;;;;5.89;85.30;94242.41;5070831;28;20201;-73
2022/10/18 00:48:14;;;;;;;12.03;11.17;;;;;;;5.71;84.93;94224.94;5070007;28;20256;-73
2022/10/18 00:50:41;;;;;;;11.13;10.33;;;;;;;5.62;85.40;94225.41;5071229;28;20268;-72
2022/10/18 00:53:11;;;;;;;10.47;9.87;;;;;;;5.63;86.09;94209.66;5070026;28;20225;-74
2022/10/18 00:55:37;;;;;;;11.23;10.33;;;;;;;5.73;85.42;94225.53;5070449;28;20193;-73
2022/10/18 00:58:04;;;;;;;11.67;10.57;;;;;;;5.77;85.86;94244.84;5069906;28;20243;-73
2022/10/18 01:00:29;;;;;;;12.10;11.30;;;;;;;5.81;85.74;94234.84;5070556;28;20184;-73
2022/10/18 01:02:57;;;;;;;10.37;9.73;;;;;;;5.72;85.79;94225.72;5070091;28;20197;-73
2022/10/18 01:05:23;;;;;;;11.73;10.87;;;;;;;5.56;85.69;94205.50;5069887;28;20293;-73
2022/10/18 01:08:06;;;;;;;12.40;11.10;;;;;;;5.66;86.06;94211.03;5069520;28;20185;-73
2022/10/18 01:10:57;;;;;;;12.23;11.40;;;;;;;5.72;86.60;94228.31;5069786;28;20181;-73
2022/10/18 01:13:30;;;;;;;11.80;10.90;;;;;;;5.75;87.00;94228.72;5069276;28;20232;-73
2022/10/18 01:16:16;;;;;;;12.27;11.37;;;;;;;5.56;86.42;94208.91;5069944;28;20213;-73
2022/10/18 01:18:57;;;;;;;12.30;11.20;;;;;;;5.57;87.43;94207.09;5068475;28;20233;-73
2022/10/18 01:21:40;;;;;;;12.07;11.30;;;;;;;5.57;86.59;94201.94;5069781;28;20240;-71
2022/10/18 01:24:15;;;;;;;12.90;11.90;;;;;;;5.67;86.12;94217.78;5067910;28;20248;-72
2022/10/18 01:27:11;;;;;;;12.70;11.60;;;;;;;5.63;87.60;94214.03;5069690;28;20200;-73
2022/10/18 01:29:55;;;;;;;13.67;12.27;;;;;;;5.58;87.83;94219.03;5069255;28;20240;-73
2022/10/18 01:32:26;;;;;;;12.50;11.70;;;;;;;5.43;87.80;94214.13;5069737;28;20213;-74
2022/10/18 01:34:58;;;;;;;14.90;13.33;;;;;;;5.39;88.11;94215.56;5069495;28;20307;-73
2022/10/18 01:37:24;;;;;;;13.27;12.17;;;;;;;5.39;88.01;94215.56;5094300;28;20197;-73
2022/10/18 01:39:55;;;;;;;13.30;12.20;;;;;;;5.43;87.45;94215.94;5068983;28;20221;-73
2022/10/18 01:42:20;;;;;;;14.23;12.93;;;;;;;5.33;87.51;94200.06;5068849;28;20178;-74
2022/10/18 01:44:49;;;;;;;13.60;12.23;;;;;;;5.43;87.75;94208.19;5069284;28;20232;-73
2022/10/18 01:47:15;;;;;;;12.93;11.67;;;;;;;5.21;87.44;94176.63;5069299;28;20228;-73
2022/10/18 01:49:41;;;;;;;14.10;12.70;;;;;;;5.21;88.74;94196.53;5069149;28;20244;-73
2022/10/18 01:52:11;;;;;;;13.40;12.27;;;;;;;5.26;88.89;94200.09;5069842;28;20186;-74
2022/10/18 01:54:42;;;;;;;12.17;11.37;;;;;;;5.33;88.83;94205.25;5068314;28;20229;-74
2022/10/18 01:57:38;;;;;;;12.80;11.87;;;;;;;5.33;88.93;94205.25;5069365;28;20224;-74
2022/10/18 02:00:14;;;;;;;12.10;10.93;;;;;;;5.23;89.14;94184.19;5068640;28;20265;-74
2022/10/18 02:02:39;;;;;;;12.53;11.53;;;;;;;5.29;89.16;94201.50;5068982;28;20189;-73
2022/10/18 02:05:29;;;;;;;15.90;12.43;;;;;;;5.18;88.69;94202.13;5069232;28;20232;-72
2022/10/18 02:08:18;;;;;;;13.47;12.17;;;;;;;5.07;88.48;94184.66;5068298;28;20214;-73
2022/10/18 02:10:48;;;;;;;13.07;11.97;;;;;;;5.07;89.94;94188.06;5067816;28;20190;-73
2022/10/18 02:13:22;;;;;;;12.63;11.73;;;;;;;5.28;88.44;94192.13;5068797;28;20300;-73
2022/10/18 02:15:52;;;;;;;13.67;12.47;;;;;;;5.17;89.07;94182.44;5067925;28;20255;-73
2022/10/18 02:18:24;;;;;;;13.37;12.07;;;;;;;4.94;89.01;94162.22;5068535;28;20225;-73
2022/10/18 02:20:50;;;;;;;13.90;12.87;;;;;;;5.22;88.26;94182.59;5067915;28;20197;-73
2022/10/18 02:23:21;;;;;;;13.07;12.03;;;;;;;5.03;88.51;94162.78;5067604;28;20251;-73
2022/10/18 02:25:46;;;;;;;13.37;12.30;;;;;;;5.10;88.69;94179.88;5068902;28;20208;-72
2022/10/18 02:28:12;;;;;;;13.63;12.63;;;;;;;5.07;87.79;94179.50;5068449;28;20229;-72
2022/10/18 02:30:46;;;;;;;13.60;12.50;;;;;;;5.10;88.62;94159.16;5068993;28;20261;-72
2022/10/18 02:33:14;;;;;;;14.87;13.50;;;;;;;5.12;88.09;94179.66;5068491;28;21198;-72
2022/10/18 02:35:45;;;;;;;13.87;12.67;;;;;;;5.14;87.74;94160.31;5068337;28;20198;-73
2022/10/18 02:38:14;;;;;;;13.90;12.57;;;;;;;5.13;88.21;94178.66;5068361;28;20327;-73
2022/10/18 02:40:39;;;;;;;13.50;12.30;;;;;;;5.07;88.10;94182.88;5067999;28;20239;-73
2022/10/18 02:43:05;;;;;;;14.43;13.13;;;;;;;4.81;88.09;94170.03;5068369;28;20213;-73
2022/10/18 02:45:31;;;;;;;12.90;12.00;;;;;;;4.83;88.03;94180.97;5067789;28;20199;-73
2022/10/18 02:47:57;;;;;;;13.47;12.37;;;;;;;4.90;88.31;94190.28;5068212;28;20238;-73
2022/10/18 02:50:22;;;;;;;14.00;12.70;;;;;;;4.82;88.75;94192.34;5068376;28;20193;-73
2022/10/18 02:52:47;;;;;;;13.33;12.23;;;;;;;4.74;88.03;94171.88;5068563;28;20213;-73
2022/10/18 02:55:13;;;;;;;13.33;11.87;;;;;;;4.57;88.82;94174.13;5068533;28;20217;-72
2022/10/18 02:57:38;;;;;;;13.33;12.03;;;;;;;4.80;88.13;94202.88;5068511;28;20181;-73
2022/10/18 03:00:05;;;;;;;14.10;12.70;;;;;;;4.61;88.74;94188.22;5066741;28;20237;-72
2022/10/18 03:02:31;;;;;;;12.73;11.63;;;;;;;4.41;89.54;94168.56;5067687;28;20185;-73
2022/10/18 03:04:56;;;;;;;14.23;13.03;;;;;;;4.68;89.40;94183.03;5068254;28;20232;-72
2022/10/18 03:07:22;;;;;;;13.53;12.43;;;;;;;4.93;88.76;94179.53;5070980;28;20205;-74
2022/10/18 03:09:47;;;;;;;12.13;11.30;;;;;;;4.72;88.25;94184.19;5070939;28;20249;-73
2022/10/18 03:12:12;;;;;;;12.60;11.70;;;;;;;4.48;88.17;94149.44;5072047;28;20228;-71
2022/10/18 03:14:38;;;;;;;12.47;11.33;;;;;;;4.46;88.49;94150.66;5070895;28;20213;-73
2022/10/18 03:17:03;;;;;;;12.63;11.63;;;;;;;4.67;87.27;94184.00;5072435;28;20186;-73
2022/10/18 03:19:29;;;;;;;13.77;12.40;;;;;;;4.54;88.45;94181.47;5071990;28;20221;-72
2022/10/18 03:21:54;;;;;;;12.60;11.73;;;;;;;4.43;87.86;94172.56;5072492;28;20181;-72
2022/10/18 03:24:19;;;;;;;13.47;12.27;;;;;;;4.52;88.83;94178.28;5071780;28;20248;-72
2022/10/18 03:26:45;;;;;;;12.83;11.83;;;;;;;4.55;89.36;94157.19;5072351;28;20215;-72
2022/10/18 03:29:11;;;;;;;12.10;11.20;;;;;;;4.42;89.35;94132.16;5071631;28;20227;-71
2022/10/18 03:31:36;;;;;;;13.43;12.13;;;;;;;4.59;89.13;94169.50;5072506;28;20209;-72
2022/10/18 03:34:01;;;;;;;13.93;12.77;;;;;;;4.58;88.69;94174.88;5070781;28;20213;-73
2022/10/18 03:36:27;;;;;;;14.03;12.83;;;;;;;4.63;89.55;94175.09;5072562;28;20189;-73
2022/10/18 03:38:52;;;;;;;13.43;12.37;;;;;;;4.57;89.18;94178.47;5071590;28;20225;-73
2022/10/18 03:41:19;;;;;;;12.53;11.50;;;;;;;4.51;89.76;94184.47;5071207;28;20608;-72
2022/10/18 03:43:45;;;;;;;12.80;11.63;;;;;;;4.38;89.77;94187.06;5071841;28;20229;-71
2022/10/18 03:46:10;;;;;;;12.57;11.47;;;;;;;4.45;89.84;94180.88;5071475;28;20201;-71
2022/10/18 03:48:35;;;;;;;14.33;13.03;;;;;;;4.40;89.63;94185.09;5071311;28;20232;-70
2022/10/18 03:51:01;;;;;;;15.67;14.03;;;;;;;4.43;89.67;94185.50;5070654;28;21051;-70
2022/10/18 03:53:26;;;;;;;13.60;12.60;;;;;;;4.42;90.37;94186.47;5068676;28;20282;-70
2022/10/18 03:55:52;;;;;;;14.17;12.97;;;;;;;4.38;90.94;94190.47;5068638;28;20193;-70
2022/10/18 03:58:18;;;;;;;15.40;13.70;;;;;;;4.37;91.34;94175.94;5068707;28;20237;-70
2022/10/18 04:00:43;;;;;;;14.20;13.00;;;;;;;4.40;90.77;94188.47;5070541;28;20208;-68
2022/10/18 04:03:09;;;;;;;14.67;12.53;;;;;;;4.34;90.39;94191.06;5069765;28;20217;-70
2022/10/18 04:05:35;;;;;;;12.40;11.40;;;;;;;4.14;91.65;94180.75;5069547;28;20232;-70
2022/10/18 04:08:01;;;;;;;13.43;12.00;;;;;;;4.34;90.99;94198.84;5068925;28;20228;-70
2022/10/18 04:10:27;;;;;;;13.27;12.10;;;;;;;4.25;90.99;94189.69;5070041;28;20193;-69
2022/10/18 04:12:52;;;;;;;12.30;11.30;;;;;;;4.30;91.08;94190.69;5070082;28;20217;-67
2022/10/18 04:15:17;;;;;;;10.83;10.13;;;;;;;3.97;91.20;94143.41;5069620;28;20192;-70
2022/10/18 04:17:43;;;;;;;12.13;11.13;;;;;;;4.24;90.90;94188.91;5067665;28;20228;-70
2022/10/18 04:20:08;;;;;;;12.63;11.63;;;;;;;4.36;89.64;94186.47;5049166;28;20186;-66
2022/10/18 04:22:34;;;;;;;12.47;11.37;;;;;;;4.26;90.03;94175.78;5048936;28;20644;-69
2022/10/18 04:25:00;;;;;;;12.73;11.83;;;;;;;4.19;91.55;94185.31;5042494;28;20230;-69
2022/10/18 04:27:25;;;;;;;14.77;12.37;;;;;;;4.40;90.79;94190.25;5045393;28;20213;-69
2022/10/18 04:29:50;;;;;;;14.40;12.93;;;;;;;4.13;90.41;94161.06;5039872;28;20245;-72
2022/10/18 04:32:16;;;;;;;16.23;13.20;;;;;;;4.23;91.46;94182.16;5041981;28;20210;-68
2022/10/18 04:34:41;;;;;;;14.27;13.07;;;;;;;4.26;90.40;94183.53;5047570;28;20313;-69
2022/10/18 04:37:07;;;;;;;14.27;12.87;;;;;;;4.24;89.70;94183.72;5049260;28;20213;-68
2022/10/18 04:39:32;;;;;;;18.37;13.53;;;;;;;4.22;90.17;94179.75;5064963;28;20282;-71
2022/10/18 04:41:57;;;;;;;14.23;12.07;;;;;;;4.25;89.83;94180.13;5069095;28;20177;-69
2022/10/18 04:44:23;;;;;;;14.67;13.20;;;;;;;4.16;90.32;94171.00;5069363;28;20229;-69
2022/10/18 04:46:48;;;;;;;15.20;13.80;;;;;;;4.04;91.20;94162.28;5069317;28;20185;-69
2022/10/18 04:49:13;;;;;;;16.70;13.23;;;;;;;3.93;91.47;94149.97;5068621;28;20222;-70
2022/10/18 04:51:39;;;;;;;13.87;12.83;;;;;;;3.79;91.21;94117.41;5069961;28;20224;-70
2022/10/18 04:54:04;;;;;;;12.13;11.27;;;;;;;4.16;90.66;94168.44;5069449;28;20225;-71
2022/10/18 04:56:30;;;;;;;13.30;10.97;;;;;;;4.36;90.20;94164.00;5068801;28;20188;-71
2022/10/18 04:58:57;;;;;;;15.53;13.40;;;;;;;4.23;90.36;94166.66;5058208;28;20222;-71
2022/10/18 05:01:22;;;;;;;13.10;11.90;;;;;;;4.19;91.17;94165.44;5047706;28;20171;-69
2022/10/18 05:03:52;;;;;;;13.60;12.27;;;;;;;4.19;91.56;94149.13;5048169;28;20246;-71
2022/10/18 05:06:17;;;;;;;12.43;11.40;;;;;;;4.42;89.83;94163.19;5048509;28;20194;-70
2022/10/18 05:08:43;;;;;;;12.40;11.50;;;;;;;4.29;90.40;94152.91;5048591;28;20232;-69
2022/10/18 05:11:08;;;;;;;13.03;11.93;;;;;;;4.33;91.16;94154.06;5048193;28;20201;-68
2022/10/18 05:13:33;;;;;;;13.53;12.47;;;;;;;4.07;90.88;94112.78;5049246;28;20225;-67
2022/10/18 05:15:59;;;;;;;14.70;13.40;;;;;;;4.33;90.93;94135.97;5049402;28;21096;-68
2022/10/18 05:18:25;;;;;;;13.77;12.33;;;;;;;4.43;91.44;94148.50;5049125;28;20252;-69
2022/10/18 05:20:50;;;;;;;14.43;13.23;;;;;;;4.43;91.02;94146.72;5049235;28;20190;-68
2022/10/18 05:23:15;;;;;;;13.43;12.37;;;;;;;4.40;91.45;94147.13;5049078;28;20742;-68
2022/10/18 05:25:41;;;;;;;13.43;12.30;;;;;;;4.53;90.83;94154.81;5049388;28;21131;-69
2022/10/18 05:28:07;;;;;;;13.83;12.70;;;;;;;4.59;90.59;94166.94;5046598;28;20218;-70
2022/10/18 05:30:35;;;;;;;22.47;18.47;;;;;;;4.66;89.47;94172.09;5048063;28;20209;-69
2022/10/18 05:33:01;;;;;;;21.43;17.90;;;;;;;4.89;89.30;94162.03;5047155;28;20233;-68
2022/10/18 05:35:26;;;;;;;21.47;17.97;;;;;;;4.79;90.73;94169.47;5047913;28;20186;-68
2022/10/18 05:37:52;;;;;;;21.37;17.27;;;;;;;4.78;90.03;94168.66;5047963;28;20217;-69
2022/10/18 05:40:17;;;;;;;17.37;15.67;;;;;;;4.86;89.19;94162.44;5047160;28;20200;-69
2022/10/18 05:42:42;;;;;;;17.10;15.37;;;;;;;4.94;89.46;94170.00;5047792;28;20201;-69
2022/10/18 05:45:08;;;;;;;18.17;15.27;;;;;;;5.12;88.32;94172.69;5048441;28;20174;-68
2022/10/18 05:47:33;;;;;;;18.20;16.47;;;;;;;5.26;88.49;94178.59;5047995;28;20190;-68
2022/10/18 05:49:59;;;;;;;20.37;16.97;;;;;;;5.28;88.13;94179.16;5042699;28;20210;-68
2022/10/18 05:52:24;;;;;;;21.60;17.20;;;;;;;5.30;88.36;94174.59;5043931;28;20270;-67
2022/10/18 05:54:49;;;;;;;20.53;17.33;;;;;;;5.30;87.66;94164.22;5047410;28;20294;-67
2022/10/18 05:57:15;;;;;;;18.63;16.10;;;;;;;5.30;88.62;94180.56;5048535;28;20198;-68
2022/10/18 05:59:40;;;;;;;58.50;34.43;;;;;;;5.50;87.02;94175.25;5065608;28;20243;-67
2022/10/18 06:02:05;;;;;;;28.67;20.47;;;;;;;5.50;88.54;94175.25;5068828;28;20206;-67
2022/10/18 06:04:31;;;;;;;20.43;16.73;;;;;;;5.28;87.59;94129.97;5068145;28;20229;-65
2022/10/18 06:06:56;;;;;;;34.23;24.70;;;;;;;5.75;87.11;94178.69;5068630;28;20189;-66
2022/10/18 06:09:22;;;;;;;30.93;24.97;;;;;;;5.86;86.48;94183.22;5068022;28;20198;-67
2022/10/18 06:11:47;;;;;;;24.60;20.67;;;;;;;5.94;86.07;94186.34;5068121;28;20185;-66
2022/10/18 06:14:12;;;;;;;23.90;19.67;;;;;;;6.11;84.73;94184.00;5067082;28;20292;-66
2022/10/18 06:16:38;;;;;;;26.97;21.20;;;;;;;6.14;85.52;94191.34;5068563;28;20185;-67
2022/10/18 06:19:03;;;;;;;39.33;30.67;;;;;;;6.15;85.26;94190.34;5067491;28;20261;-69
2022/10/18 06:21:28;;;;;;;54.20;36.27;;;;;;;6.29;84.37;94177.06;5063554;28;20193;-67
2022/10/18 06:23:56;;;;;;;22.80;16.23;;;;;;;6.34;83.41;94168.63;5066249;28;20225;-67
2022/10/18 06:26:22;;;;;;;21.47;18.00;;;;;;;6.39;84.50;94185.16;5053254;28;20190;-68
2022/10/18 06:28:47;;;;;;;18.67;16.70;;;;;;;6.68;82.15;94188.84;5047495;28;20229;-68
2022/10/18 06:31:13;;;;;;;29.07;19.53;;;;;;;6.66;82.25;94182.28;5046053;28;20194;-67
2022/10/18 06:33:39;;;;;;;18.13;16.03;;;;;;;6.71;83.23;94183.22;5046211;28;20226;-67
2022/10/18 06:36:07;;;;;;;20.00;17.83;;;;;;;6.78;83.12;94180.56;5047655;28;20193;-67
2022/10/18 06:38:33;;;;;;;20.33;17.00;;;;;;;6.90;82.81;94169.22;5046973;28;20297;-67
2022/10/18 06:40:59;;;;;;;28.37;20.50;;;;;;;6.87;83.30;94166.25;5050138;28;20193;-67
2022/10/18 06:43:25;;;;;;;24.33;17.80;;;;;;;7.04;82.75;94180.25;5051166;28;20241;-67
2022/10/18 06:45:52;;;;;;;19.23;15.50;;;;;;;7.15;82.04;94171.72;5051720;28;20194;-69
2022/10/18 06:48:18;;;;;;;18.13;16.37;;;;;;;7.12;83.01;94172.16;5049338;28;20240;-69
2022/10/18 06:50:55;;;;;;;16.30;14.63;;;;;;;7.38;81.74;94172.59;5051678;28;20224;-69
2022/10/18 06:53:21;;;;;;;19.00;17.00;;;;;;;7.20;82.94;94164.88;5050531;28;20240;-69
2022/10/18 06:55:46;;;;;;;17.97;15.73;;;;;;;7.25;83.30;94174.59;5051296;28;20182;-68
2022/10/18 06:58:12;;;;;;;16.87;15.10;;;;;;;7.28;83.67;94161.97;5054668;28;20221;-68
2022/10/18 07:00:38;;;;;;;15.50;14.03;;;;;;;7.54;83.35;94172.00;5070197;28;20208;-66
2022/10/18 07:03:03;;;;;;;12.60;11.60;;;;;;;7.59;82.55;94168.72;5064556;28;20248;-65
2022/10/18 07:05:30;;;;;;;12.80;11.87;;;;;;;7.67;82.49;94169.19;5050593;28;20230;-66
2022/10/18 07:07:55;;;;;;;13.47;12.13;;;;;;;7.84;82.36;94185.72;5050497;28;22433;-65
2022/10/18 07:10:21;;;;;;;23.27;16.83;;;;;;;8.01;81.75;94184.09;5051833;28;20190;-68
2022/10/18 07:12:46;;;;;;;16.83;15.13;;;;;;;8.16;81.73;94192.25;5050657;28;20249;-67
2022/10/18 07:15:12;;;;;;;33.57;24.63;;;;;;;8.25;80.34;94194.56;5051257;28;20207;-68
2022/10/18 07:17:37;;;;;;;12.43;11.07;;;;;;;8.10;80.61;94176.75;5050793;28;20182;-69
2022/10/18 07:20:03;;;;;;;14.07;12.97;;;;;;;8.28;80.91;94189.66;5070635;28;21057;-67
2022/10/18 07:22:29;;;;;;;15.37;13.90;;;;;;;8.65;78.55;94195.47;5070836;28;20189;-68
2022/10/18 07:24:54;;;;;;;13.57;12.27;;;;;;;8.83;76.56;94162.25;5051499;28;20829;-67
2022/10/18 07:27:19;;;;;;;14.07;13.07;;;;;;;8.94;77.73;94191.91;5050919;28;20178;-68
2022/10/18 07:29:45;;;;;;;15.40;13.57;;;;;;;8.54;76.95;94176.22;5041510;28;20278;-67
2022/10/18 07:32:10;;;;;;;15.23;13.57;;;;;;;8.79;78.32;94189.00;5045686;28;20190;-68
2022/10/18 07:34:36;;;;;;;15.87;14.20;;;;;;;8.96;77.22;94176.84;5066086;28;20221;-67
2022/10/18 07:37:01;;;;;;;15.83;13.53;;;;;;;9.33;75.52;94193.72;5069877;28;20193;-66
2022/10/18 07:39:26;;;;;;;21.67;17.17;;;;;;;9.73;74.89;94184.84;5051716;28;20214;-68
2022/10/18 07:41:52;;;;;;;23.40;16.60;;;;;;;9.58;74.17;94165.53;5050592;28;20224;-68
2022/10/18 07:44:17;;;;;;;15.93;14.63;;;;;;;9.73;73.30;94176.22;5049978;28;20244;-68
2022/10/18 07:46:42;;;;;;;16.87;15.13;;;;;;;9.91;72.93;94170.81;5051086;28;20208;-68
2022/10/18 07:49:08;;;;;;;19.10;16.13;;;;;;;9.80;74.83;94180.25;5050761;28;20286;-67
2022/10/18 07:51:34;;;;;;;16.43;14.57;;;;;;;10.11;74.00;94170.34;5049867;28;20256;-67
2022/10/18 07:54:00;;;;;;;16.77;15.17;;;;;;;10.23;72.29;94169.25;5057183;28;20240;-67
2022/10/18 07:56:26;;;;;;;16.47;14.90;;;;;;;10.35;71.10;94167.34;5051018;28;20193;-67
2022/10/18 07:58:54;;;;;;;16.10;13.87;;;;;;;10.30;70.67;94174.31;5060070;28;20222;-67
2022/10/18 08:01:21;;;;;;;16.83;14.47;;;;;;;10.37;71.04;94159.28;5070059;28;20206;-67
2022/10/18 08:03:47;;;;;;;28.77;17.13;;;;;;;10.53;70.09;94167.09;5068304;28;20249;-67
2022/10/18 08:06:15;;;;;;;18.97;15.67;;;;;;;10.61;69.46;94165.91;5070253;28;20204;-67
2022/10/18 08:08:41;;;;;;;21.33;17.00;;;;;;;10.71;69.36;94161.59;5068968;28;20221;-68
2022/10/18 08:11:15;;;;;;;25.93;19.67;;;;;;;10.81;67.92;94166.97;5070240;28;20200;-68
2022/10/18 08:13:42;;;;;;;23.67;18.73;;;;;;;10.85;68.14;94167.25;5068959;28;21088;-67
2022/10/18 08:16:11;;;;;;;18.40;15.20;;;;;;;10.86;67.42;94159.19;5069800;28;20231;-67
2022/10/18 08:18:36;;;;;;;19.03;16.60;;;;;;;10.66;69.27;94158.13;5069423;28;20255;-67
2022/10/18 08:21:04;;;;;;;18.50;16.53;;;;;;;10.89;68.30;94147.47;5069848;28;20208;-67
2022/10/18 08:23:29;;;;;;;19.37;15.67;;;;;;;10.96;67.11;94161.13;5069727;28;20319;-65
2022/10/18 08:25:55;;;;;;;20.40;16.83;;;;;;;11.08;66.91;94148.75;5070102;28;20209;-66
2022/10/18 08:28:20;;;;;;;26.50;15.70;;;;;;;11.04;66.62;94148.44;5069604;28;20229;-67
2022/10/18 08:30:46;;;;;;;22.17;16.80;;;;;;;10.89;68.25;94142.25;5069054;28;20185;-68
2022/10/18 08:33:11;;;;;;;18.07;16.30;;;;;;;10.83;69.33;94138.00;5068757;28;20225;-67
2022/10/18 08:35:37;;;;;;;19.20;17.20;;;;;;;11.15;67.09;94131.84;5069570;28;20201;-67
2022/10/18 08:38:02;;;;;;;26.07;18.87;;;;;;;11.21;68.41;94133.47;5065933;28;20904;-67
2022/10/18 08:40:29;;;;;;;25.17;17.07;;;;;;;11.15;67.56;94131.84;5048484;28;20194;-67
2022/10/18 08:42:58;;;;;;;24.63;16.80;;;;;;;11.54;66.15;94123.88;5051454;28;20196;-68
2022/10/18 08:45:26;;;;;;;21.00;16.77;;;;;;;11.63;65.75;94117.19;5069155;28;20185;-68
2022/10/18 08:47:56;;;;;;;27.47;16.80;;;;;;;11.92;64.47;94126.38;5069888;28;20170;-68
2022/10/18 08:50:34;;;;;;;19.33;16.17;;;;;;;11.95;64.55;94115.41;5068533;28;20232;-67
2022/10/18 08:53:11;;;;;;;16.87;15.37;;;;;;;11.97;64.33;94119.31;5069578;28;20233;-67
2022/10/18 08:55:51;;;;;;;19.37;15.27;;;;;;;12.19;63.88;94106.13;5069350;28;20173;-65
2022/10/18 08:58:30;;;;;;;16.80;15.10;;;;;;;12.22;64.67;94105.63;5068687;28;20237;-67
2022/10/18 09:01:31;;;;;;;15.53;14.20;;;;;;;12.32;62.93;94106.50;5069776;28;20193;-66
2022/10/18 09:03:59;;;;;;;16.87;15.13;;;;;;;12.42;62.54;94111.03;5051554;28;20241;-67
2022/10/18 09:06:31;;;;;;;15.90;14.10;;;;;;;12.54;62.92;94103.75;5069735;28;20190;-65
2022/10/18 09:09:41;;;;;;;15.20;12.27;;;;;;;12.76;61.40;94101.78;5067821;28;20222;-67
2022/10/18 09:12:19;;;;;;;14.00;12.80;;;;;;;13.00;61.12;94108.19;5067688;28;20189;-66
2022/10/18 09:15:03;;;;;;;18.40;13.43;;;;;;;13.04;61.26;94104.03;5069256;28;20237;-67
2022/10/18 09:17:28;;;;;;;17.67;13.17;;;;;;;13.03;60.67;94106.91;5069868;28;20189;-66
2022/10/18 09:20:27;;;;;;;14.33;12.93;;;;;;;13.12;59.17;94100.91;5069121;28;20232;-66
2022/10/18 09:23:14;;;;;;;15.60;13.87;;;;;;;13.16;60.08;94112.47;5068867;28;20201;-66
2022/10/18 09:25:48;;;;;;;22.07;13.63;;;;;;;12.60;65.28;94056.38;5069364;28;20215;-66
2022/10/18 09:28:26;;;;;;;32.63;19.73;;;;;;;13.13;61.02;94105.13;5069449;28;20254;-68
2022/10/18 09:31:18;;;;;;;20.93;17.87;;;;;;;13.27;59.51;94111.47;5067589;28;20193;-68
2022/10/18 09:33:56;;;;;;;16.03;13.43;;;;;;;13.09;59.59;94101.41;5068453;28;20248;-68
2022/10/18 09:36:25;;;;;;;15.57;13.27;;;;;;;13.22;60.90;94095.69;5068131;28;20185;-69
2022/10/18 09:38:58;;;;;;;16.47;12.80;;;;;;;13.27;60.23;94097.53;5067632;28;20218;-70
2022/10/18 09:41:29;;;;;;;14.87;13.00;;;;;;;13.18;60.62;94093.84;5068563;28;20211;-69
2022/10/18 09:44:12;;;;;;;14.20;12.57;;;;;;;13.38;59.54;94092.06;5068866;28;20236;-69
2022/10/18 09:46:44;;;;;;;14.17;12.77;;;;;;;13.39;57.74;94083.16;5068394;28;20216;-69
2022/10/18 09:49:25;;;;;;;14.87;13.57;;;;;;;13.53;57.04;94086.06;5067605;28;20240;-69
2022/10/18 09:51:52;;;;;;;14.43;13.07;;;;;;;13.78;56.39;94084.25;5068100;28;20177;-69
2022/10/18 09:54:29;;;;;;;13.60;12.33;;;;;;;14.07;55.16;94093.19;5068465;28;20213;-69
2022/10/18 09:57:00;;;;;;;14.17;12.87;;;;;;;13.75;56.45;94084.78;5068877;28;20192;-69
2022/10/18 09:59:44;;;;;;;16.27;12.97;;;;;;;14.06;55.50;94075.88;5068299;28;20246;-69
2022/10/18 10:02:20;;;;;;;14.50;12.97;;;;;;;13.97;55.43;94077.44;5068801;28;20186;-68
2022/10/18 10:04:46;;;;;;;12.97;11.83;;;;;;;14.38;54.20;94071.13;5067316;28;20233;-69
2022/10/18 10:07:16;;;;;;;13.40;12.00;;;;;;;14.43;52.88;94052.72;5069381;28;20185;-68
2022/10/18 10:09:48;;;;;;;16.77;15.07;;;;;;;14.54;53.67;94057.97;5067471;28;20229;-68
2022/10/18 10:13:05;;;;;;;19.63;14.87;;;;;;;14.27;54.67;94053.78;5068262;28;20212;-70
2022/10/18 10:15:32;;;;;;;14.77;13.50;;;;;;;14.54;52.49;94052.72;5037587;28;20214;-70
2022/10/18 10:18:04;;;;;;;16.10;14.47;;;;;;;14.30;54.78;94045.38;5062515;28;20328;-67
2022/10/18 10:20:40;;;;;;;16.10;14.50;;;;;;;14.49;55.61;94046.41;5049871;28;20945;-67
2022/10/18 10:23:18;;;;;;;20.50;13.63;;;;;;;14.56;54.67;94040.06;5051623;28;20245;-68
2022/10/18 10:25:50;;;;;;;16.77;15.10;;;;;;;14.48;54.47;94031.69;5068041;28;20189;-68
2022/10/18 10:28:22;;;;;;;17.07;13.97;;;;;;;14.60;53.08;94025.34;5068184;28;20229;-69
2022/10/18 10:30:48;;;;;;;23.77;14.50;;;;;;;14.68;52.09;94004.53;5067916;28;20181;-70
2022/10/18 10:33:34;;;;;;;16.27;14.87;;;;;;;14.67;51.75;94021.38;5064927;28;20236;-68
2022/10/18 10:36:03;;;;;;;21.67;14.93;;;;;;;14.86;50.11;94021.56;5066778;28;20185;-69
2022/10/18 10:38:30;;;;;;;16.63;14.27;;;;;;;14.79;51.92;94013.16;5068305;28;20224;-68
2022/10/18 10:40:56;;;;;;;16.20;13.93;;;;;;;14.72;49.31;94004.78;5066401;28;20202;-69
2022/10/18 10:43:30;;;;;;;14.30;13.00;;;;;;;14.64;49.56;93997.47;5066775;28;20233;-68
2022/10/18 10:46:00;;;;;;;16.00;13.73;;;;;;;14.58;50.06;93980.13;5065995;28;20193;-69
2022/10/18 10:48:26;;;;;;;15.60;13.47;;;;;;;14.78;50.46;93980.06;5066654;28;20229;-69
2022/10/18 10:51:01;;;;;;;13.87;12.73;;;;;;;15.19;47.23;93984.81;5066676;28;20215;-68
2022/10/18 10:53:31;;;;;;;13.73;12.07;;;;;;;15.44;46.41;93994.44;5066067;28;20220;-68
2022/10/18 10:55:58;;;;;;;14.87;13.47;;;;;;;15.43;46.29;93980.47;5067865;28;20201;-68
2022/10/18 10:58:27;;;;;;;14.93;13.50;;;;;;;15.57;45.89;93981.44;5064143;28;20225;-70
2022/10/18 11:00:54;;;;;;;14.73;13.27;;;;;;;15.58;45.99;93982.22;5066291;28;20177;-70
2022/10/18 11:03:22;;;;;;;14.73;13.23;;;;;;;15.29;47.29;93978.69;5067151;28;20237;-70
2022/10/18 11:05:54;;;;;;;14.67;12.80;;;;;;;15.66;45.79;93971.88;5067797;28;20177;-69
2022/10/18 11:08:30;;;;;;;13.97;12.40;;;;;;;15.40;45.92;93956.56;5068339;28;20244;-70
2022/10/18 11:11:27;;;;;;;13.80;12.60;;;;;;;15.69;45.40;93973.94;5068928;28;20185;-70
2022/10/18 11:14:03;;;;;;;16.87;12.97;;;;;;;15.39;45.89;93947.84;5067522;28;20244;-70
2022/10/18 11:16:38;;;;;;;14.33;12.63;;;;;;;15.42;47.16;93949.19;5066713;28;20197;-70
2022/10/18 11:19:11;;;;;;;17.53;12.23;;;;;;;15.58;46.23;93961.16;5067094;28;20239;-70
2022/10/18 11:21:37;;;;;;;12.83;11.73;;;;;;;15.35;48.51;93925.75;5065229;28;20196;-70
2022/10/18 11:24:07;;;;;;;13.33;11.90;;;;;;;15.70;45.17;93932.63;5066996;28;20228;-70
2022/10/18 11:26:35;;;;;;;11.60;10.80;;;;;;;15.98;44.08;93929.19;5067832;28;20185;-70
2022/10/18 11:29:06;;;;;;;13.73;10.87;;;;;;;16.14;44.30;93927.19;5070438;28;20255;-71
2022/10/18 11:31:47;;;;;;;10.23;9.53;;;;;;;16.11;43.77;93902.16;5071260;28;20224;-71